Time;durP1;ratioP1;P1;durP2;ratioP2;P2;SDS_P1;SDS_P2;PMS_P1;PMS_P2;Temp;Humidity;BMP_temperature;BMP_pressure;BME280_temperature;BME280_humidity;BME280_pressure;Samples;Min_cycle;Max_cycle;Signal;HPM_P1;HPM_P2
2024/04/20 00:00:47;;;;;;;4.50;2.10;;;8.10;99.90;;;;;;2237402;26;20723;-72
2024/04/20 00:01:47;;;;;;;6.72;2.30;;;8.00;99.90;;;;;;2235987;26;20374;-72
2024/04/20 00:02:50;;;;;;;9.10;2.45;;;8.00;99.90;;;;;;2235539;26;20011;-71
2024/04/20 00:03:51;;;;;;;7.40;2.50;;;8.00;99.90;;;;;;2237586;26;20011;-72
2024/04/20 00:04:51;;;;;;;4.65;1.88;;;8.00;99.90;;;;;;2236085;26;20016;-72
2024/04/20 00:05:52;;;;;;;4.63;2.25;;;8.00;99.90;;;;;;2236886;26;20576;-71
2024/04/20 00:06:52;;;;;;;10.45;2.22;;;8.00;99.90;;;;;;2236975;26;20014;-71
2024/04/20 00:07:53;;;;;;;6.35;2.35;;;8.00;99.90;;;;;;2237950;26;20008;-72
2024/04/20 00:08:53;;;;;;;8.68;2.25;;;8.00;99.90;;;;;;2237872;26;20018;-71
2024/04/20 00:09:56;;;;;;;5.28;1.98;;;8.10;99.90;;;;;;2237519;26;20432;-71
2024/04/20 00:10:57;;;;;;;4.68;2.10;;;8.00;99.90;;;;;;2238330;26;20000;-71
2024/04/20 00:11:57;;;;;;;5.32;1.85;;;8.00;99.90;;;;;;2235732;26;20039;-71
2024/04/20 00:12:58;;;;;;;7.30;2.30;;;8.10;99.90;;;;;;2236315;26;19995;-72
2024/04/20 00:14:00;;;;;;;7.05;2.03;;;8.10;99.90;;;;;;2237169;26;20010;-71
2024/04/20 00:15:00;;;;;;;5.80;2.13;;;8.00;99.90;;;;;;2233868;26;20008;-73
2024/04/20 00:16:04;;;;;;;3.90;2.17;;;8.00;99.90;;;;;;2236682;26;19992;-71
2024/04/20 00:17:05;;;;;;;8.73;2.50;;;8.00;99.90;;;;;;2237324;26;20004;-71
2024/04/20 00:18:05;;;;;;;8.32;2.42;;;8.00;99.90;;;;;;2238468;26;20014;-72
2024/04/20 00:19:06;;;;;;;5.00;1.95;;;8.00;99.90;;;;;;2235662;26;20011;-70
2024/04/20 00:20:06;;;;;;;8.80;2.35;;;8.00;99.90;;;;;;2238199;26;20000;-71
2024/04/20 00:21:08;;;;;;;5.18;2.03;;;8.00;99.90;;;;;;2236886;26;20006;-71
2024/04/20 00:22:10;;;;;;;5.25;2.17;;;8.00;99.90;;;;;;2242592;26;20471;-71
2024/04/20 00:23:10;;;;;;;8.48;2.80;;;8.00;99.90;;;;;;2235699;26;20071;-71
2024/04/20 00:24:11;;;;;;;8.32;2.33;;;8.00;99.90;;;;;;2236994;26;20043;-72
2024/04/20 00:25:11;;;;;;;7.22;2.58;;;7.90;99.90;;;;;;2237003;26;20034;-71
2024/04/20 00:26:13;;;;;;;8.45;2.90;;;7.90;99.90;;;;;;2237342;26;20014;-71
2024/04/20 00:27:13;;;;;;;4.93;1.95;;;7.90;99.90;;;;;;2236869;26;20010;-71
2024/04/20 00:28:14;;;;;;;5.85;2.08;;;7.90;99.90;;;;;;2238490;26;20476;-71
2024/04/20 00:29:14;;;;;;;8.52;2.17;;;7.90;99.90;;;;;;2237055;26;20014;-71
2024/04/20 00:30:15;;;;;;;4.63;2.20;;;7.90;99.90;;;;;;2238173;26;20004;-72
2024/04/20 00:31:17;;;;;;;5.32;2.10;;;7.90;99.90;;;;;;2236257;26;20015;-71
2024/04/20 00:32:17;;;;;;;7.90;2.10;;;7.90;99.90;;;;;;2238139;26;19996;-71
2024/04/20 00:33:18;;;;;;;10.05;2.70;;;7.90;99.90;;;;;;2238397;26;20380;-71
2024/04/20 00:34:19;;;;;;;5.75;2.00;;;7.80;99.90;;;;;;2243354;26;20990;-71
2024/04/20 00:35:20;;;;;;;5.97;2.13;;;7.80;99.90;;;;;;2237559;26;20353;-71
2024/04/20 00:36:20;;;;;;;4.70;2.17;;;7.80;99.90;;;;;;2238438;26;20085;-71
2024/04/20 00:37:21;;;;;;;6.32;1.95;;;7.80;99.90;;;;;;2237025;26;20456;-71
2024/04/20 00:38:22;;;;;;;5.90;2.35;;;7.80;99.90;;;;;;2236282;26;20040;-71
2024/04/20 00:39:22;;;;;;;5.95;1.98;;;7.80;99.90;;;;;;2237739;26;20782;-72
2024/04/20 00:40:23;;;;;;;6.20;2.13;;;7.70;99.90;;;;;;2236434;26;19999;-72
2024/04/20 00:41:23;;;;;;;6.03;2.53;;;7.70;99.90;;;;;;2237160;26;20042;-71
2024/04/20 00:42:24;;;;;;;6.18;2.33;;;7.70;99.90;;;;;;2237478;26;20043;-72
2024/04/20 00:43:25;;;;;;;9.13;2.17;;;7.70;99.90;;;;;;2236676;26;19995;-71
2024/04/20 00:44:25;;;;;;;8.15;2.33;;;7.70;99.90;;;;;;2239149;26;20006;-72
2024/04/20 00:45:26;;;;;;;4.95;1.92;;;7.70;99.90;;;;;;2231450;26;20031;-72
2024/04/20 00:46:27;;;;;;;6.47;1.98;;;7.70;99.90;;;;;;2234583;26;20000;-71
2024/04/20 00:47:28;;;;;;;22.08;3.13;;;7.70;99.90;;;;;;2236639;26;20004;-71
2024/04/20 00:48:29;;;;;;;9.18;3.05;;;7.60;99.90;;;;;;2237955;26;20088;-71
2024/04/20 00:49:30;;;;;;;5.38;2.15;;;7.60;99.90;;;;;;2236065;26;20012;-71
2024/04/20 00:50:33;;;;;;;6.45;2.28;;;7.60;99.90;;;;;;2238433;26;20034;-71
2024/04/20 00:51:34;;;;;;;6.18;2.10;;;7.60;99.90;;;;;;2235577;26;20043;-71
2024/04/20 00:52:35;;;;;;;8.07;1.85;;;7.50;99.90;;;;;;2237286;26;20003;-71
2024/04/20 00:53:36;;;;;;;5.82;2.03;;;7.60;99.90;;;;;;2236864;26;20011;-71
2024/04/20 00:54:37;;;;;;;9.48;2.42;;;7.60;99.90;;;;;;2238293;26;20532;-71
2024/04/20 00:55:38;;;;;;;8.18;2.47;;;7.50;99.90;;;;;;2237012;26;20610;-71
2024/04/20 00:56:39;;;;;;;6.35;2.30;;;7.50;99.90;;;;;;2238044;26;20014;-72
2024/04/20 00:57:40;;;;;;;9.20;2.53;;;7.50;99.90;;;;;;2236287;26;20505;-71
2024/04/20 00:58:45;;;;;;;8.57;2.15;;;7.50;99.90;;;;;;2236404;26;20004;-71
2024/04/20 00:59:45;;;;;;;7.35;2.33;;;7.50;99.90;;;;;;2236361;26;20004;-71
2024/04/20 01:00:48;;;;;;;4.75;1.80;;;7.50;99.90;;;;;;2236672;26;19999;-72
2024/04/20 01:01:49;;;;;;;7.03;1.95;;;7.50;99.90;;;;;;2237581;26;20004;-72
2024/04/20 01:02:50;;;;;;;9.65;2.08;;;7.50;99.90;;;;;;2238224;26;20336;-71
2024/04/20 01:03:50;;;;;;;6.30;2.15;;;7.50;99.90;;;;;;2236655;26;19999;-68
2024/04/20 01:04:51;;;;;;;4.97;2.00;;;7.50;99.90;;;;;;2238317;26;20000;-68
2024/04/20 01:05:52;;;;;;;6.05;2.00;;;7.50;99.90;;;;;;2236222;26;20036;-68
2024/04/20 01:06:53;;;;;;;7.57;2.20;;;7.50;99.90;;;;;;2236570;26;20459;-69
2024/04/20 01:07:53;;;;;;;6.20;2.53;;;7.50;99.90;;;;;;2237936;26;20000;-68
2024/04/20 01:08:56;;;;;;;5.93;2.78;;;7.50;99.90;;;;;;2237500;26;20003;-70
2024/04/20 01:09:57;;;;;;;7.30;2.90;;;7.50;99.90;;;;;;2236362;26;20043;-67
2024/04/20 01:10:57;;;;;;;6.60;2.38;;;7.50;99.90;;;;;;2235675;26;20004;-67
2024/04/20 01:11:58;;;;;;;7.55;2.28;;;7.50;99.90;;;;;;2237257;26;20011;-67
2024/04/20 01:13:04;;;;;;;6.72;2.65;;;7.50;99.90;;;;;;2238621;26;20011;-69
2024/04/20 01:14:04;;;;;;;9.10;2.20;;;7.50;99.90;;;;;;2237320;26;20007;-68
2024/04/20 01:15:05;;;;;;;6.10;2.15;;;7.50;99.90;;;;;;2236156;26;20007;-67
2024/04/20 01:16:06;;;;;;;7.38;2.20;;;7.40;99.90;;;;;;2233543;26;20610;-68
2024/04/20 01:17:07;;;;;;;7.65;2.55;;;7.50;99.90;;;;;;2236253;26;20370;-68
2024/04/20 01:18:07;;;;;;;7.22;2.28;;;7.50;99.90;;;;;;2235955;26;20374;-68
2024/04/20 01:19:14;;;;;;;8.52;2.50;;;7.50;99.90;;;;;;2237145;26;20000;-71
2024/04/20 01:20:14;;;;;;;6.32;2.22;;;7.40;99.90;;;;;;2235961;26;20000;-69
2024/04/20 01:21:16;;;;;;;7.72;3.58;;;7.40;99.90;;;;;;2236282;26;20076;-71
2024/04/20 01:22:17;;;;;;;8.57;2.50;;;7.40;99.90;;;;;;2237756;26;19996;-70
2024/04/20 01:23:18;;;;;;;6.93;2.47;;;7.40;99.90;;;;;;2235870;26;20106;-69
2024/04/20 01:24:22;;;;;;;6.95;2.28;;;7.40;99.90;;;;;;2235964;26;20014;-70
2024/04/20 01:25:23;;;;;;;4.10;2.38;;;7.40;99.90;;;;;;2236267;26;19996;-70
2024/04/20 01:26:23;;;;;;;6.65;2.58;;;7.40;99.90;;;;;;2229378;26;20018;-68
2024/04/20 01:27:24;;;;;;;8.80;2.72;;;7.40;99.90;;;;;;2238348;26;19999;-70
2024/04/20 01:28:25;;;;;;;4.72;2.17;;;7.40;99.90;;;;;;2237094;26;20333;-70
2024/04/20 01:29:25;;;;;;;6.32;2.05;;;7.40;99.90;;;;;;2236107;26;20342;-70
2024/04/20 01:30:26;;;;;;;8.60;2.25;;;7.40;99.90;;;;;;2237056;26;20014;-70
2024/04/20 01:31:26;;;;;;;5.20;2.33;;;7.40;99.90;;;;;;2236651;26;20035;-70
2024/04/20 01:32:29;;;;;;;8.18;2.17;;;7.40;99.90;;;;;;2238368;26;20031;-70
2024/04/20 01:33:29;;;;;;;5.70;2.20;;;7.30;99.90;;;;;;2234739;26;19999;-69
2024/04/20 01:34:31;;;;;;;7.05;2.60;;;7.30;99.90;;;;;;2233388;26;20531;-69
2024/04/20 01:35:31;;;;;;;8.95;2.42;;;7.30;99.90;;;;;;2239176;26;20336;-70
2024/04/20 01:36:32;;;;;;;3.50;1.98;;;7.30;99.90;;;;;;2233698;26;20012;-69
2024/04/20 01:37:32;;;;;;;5.65;2.42;;;7.30;99.90;;;;;;2235983;26;20014;-69
2024/04/20 01:38:33;;;;;;;9.85;2.42;;;7.30;99.90;;;;;;2236570;26;20018;-70
2024/04/20 01:39:33;;;;;;;6.07;2.65;;;7.30;99.90;;;;;;2235713;26;20003;-70
2024/04/20 01:40:34;;;;;;;5.95;2.47;;;7.30;99.90;;;;;;2238170;26;20018;-69
2024/04/20 01:41:35;;;;;;;9.40;2.55;;;7.30;99.90;;;;;;2236774;26;20007;-69
2024/04/20 01:42:35;;;;;;;5.65;2.50;;;7.30;99.90;;;;;;2235987;26;20017;-70
2024/04/20 01:43:36;;;;;;;7.38;2.05;;;7.20;99.90;;;;;;2238260;26;19996;-69
2024/04/20 01:44:36;;;;;;;7.03;2.13;;;7.20;99.90;;;;;;2235139;26;20007;-69
2024/04/20 01:45:37;;;;;;;5.13;2.40;;;7.20;99.90;;;;;;2237300;26;20072;-71
2024/04/20 01:46:37;;;;;;;7.97;2.42;;;7.20;99.90;;;;;;2237160;26;20417;-69
2024/04/20 01:47:39;;;;;;;9.63;3.10;;;7.20;99.90;;;;;;2235602;26;20035;-70
2024/04/20 01:48:39;;;;;;;5.90;2.20;;;7.20;99.90;;;;;;2233812;26;20432;-70
2024/04/20 01:49:40;;;;;;;3.90;1.90;;;7.20;99.90;;;;;;2235134;26;20387;-70
2024/04/20 01:50:41;;;;;;;7.72;2.58;;;7.20;99.90;;;;;;2235869;26;20015;-70
2024/04/20 01:51:41;;;;;;;4.75;1.88;;;7.20;99.90;;;;;;2231056;26;20073;-70
2024/04/20 01:52:44;;;;;;;5.13;1.92;;;7.20;99.90;;;;;;2235777;26;20007;-70
2024/04/20 01:53:45;;;;;;;5.68;2.17;;;7.20;99.90;;;;;;2234541;26;20447;-70
2024/04/20 01:54:46;;;;;;;7.53;2.45;;;7.20;99.90;;;;;;2235996;26;20324;-69
2024/04/20 01:55:46;;;;;;;5.40;2.08;;;7.20;99.90;;;;;;2233731;26;20015;-70
2024/04/20 01:56:48;;;;;;;5.00;2.38;;;7.10;99.90;;;;;;2236184;26;20935;-69
2024/04/20 01:57:48;;;;;;;4.78;2.10;;;7.20;99.90;;;;;;2237564;26;20011;-69
2024/04/20 01:58:49;;;;;;;3.83;2.20;;;7.10;99.90;;;;;;2237103;26;20011;-69
2024/04/20 01:59:49;;;;;;;7.28;2.55;;;7.10;99.90;;;;;;2232680;26;20014;-70
2024/04/20 02:00:50;;;;;;;7.25;2.28;;;7.10;99.90;;;;;;2234381;26;20479;-69
2024/04/20 02:01:55;;;;;;;3.33;1.95;;;7.10;99.90;;;;;;2230478;26;20004;-69
2024/04/20 02:02:56;;;;;;;7.88;2.35;;;7.10;99.90;;;;;;2237950;26;20018;-69
2024/04/20 02:03:56;;;;;;;3.58;1.85;;;7.10;99.90;;;;;;2235004;26;20007;-70
2024/04/20 02:04:57;;;;;;;2.55;2.10;;;7.10;99.90;;;;;;2236448;26;20048;-69
2024/04/20 02:05:57;;;;;;;5.30;2.17;;;7.10;99.90;;;;;;2236439;26;20464;-69
2024/04/20 02:06:58;;;;;;;4.82;2.08;;;7.10;99.90;;;;;;2238103;26;20405;-69
2024/04/20 02:07:59;;;;;;;7.20;2.00;;;7.10;99.90;;;;;;2236647;26;20004;-69
2024/04/20 02:08:59;;;;;;;5.80;2.50;;;7.10;99.90;;;;;;2234450;26;20051;-69
2024/04/20 02:10:00;;;;;;;8.23;2.17;;;7.10;99.90;;;;;;2235335;26;20004;-69
2024/04/20 02:11:00;;;;;;;4.25;1.88;;;7.10;99.90;;;;;;2234954;26;19999;-71
2024/04/20 02:12:01;;;;;;;4.25;2.05;;;7.00;99.90;;;;;;2234710;26;19999;-69
2024/04/20 02:13:02;;;;;;;6.28;2.05;;;7.00;99.90;;;;;;2237437;26;20512;-69
2024/04/20 02:14:05;;;;;;;6.65;2.53;;;7.00;99.90;;;;;;2233816;26;20000;-70
2024/04/20 02:15:06;;;;;;;5.88;2.53;;;7.00;99.90;;;;;;2231309;26;20009;-69
2024/04/20 02:16:06;;;;;;;8.15;2.80;;;7.00;99.90;;;;;;2234873;26;20003;-70
2024/04/20 02:17:07;;;;;;;6.90;2.75;;;7.00;99.90;;;;;;2234530;26;20046;-69
2024/04/20 02:18:07;;;;;;;6.10;2.40;;;7.00;99.90;;;;;;2237512;26;20035;-69
2024/04/20 02:19:08;;;;;;;5.38;2.10;;;7.00;99.90;;;;;;2233777;26;20343;-69
2024/04/20 02:20:09;;;;;;;5.57;2.08;;;7.00;99.90;;;;;;2235708;26;20011;-69
2024/04/20 02:21:09;;;;;;;8.68;2.70;;;7.00;99.90;;;;;;2236850;26;19995;-69
2024/04/20 02:22:10;;;;;;;6.90;2.15;;;7.00;99.90;;;;;;2236471;26;20456;-68
2024/04/20 02:23:12;;;;;;;6.38;2.30;;;7.00;99.90;;;;;;2236376;26;20000;-69
2024/04/20 02:24:12;;;;;;;5.97;2.17;;;7.00;99.90;;;;;;2237247;26;20022;-70
2024/04/20 02:25:13;;;;;;;4.50;2.58;;;7.00;99.90;;;;;;2234883;26;20035;-69
2024/04/20 02:26:14;;;;;;;5.72;2.75;;;7.00;99.90;;;;;;2237413;26;20018;-69
2024/04/20 02:27:14;;;;;;;9.27;2.15;;;7.00;99.90;;;;;;2236139;26;20474;-69
2024/04/20 02:28:15;;;;;;;7.15;2.60;;;7.00;99.90;;;;;;2236723;26;19995;-68
2024/04/20 02:29:15;;;;;;;7.35;2.65;;;7.00;99.90;;;;;;2237910;26;20009;-69
2024/04/20 02:30:16;;;;;;;5.85;2.70;;;7.00;99.90;;;;;;2234239;26;20000;-69
2024/04/20 02:31:16;;;;;;;5.45;2.42;;;7.00;99.90;;;;;;2233083;26;19996;-70
2024/04/20 02:32:17;;;;;;;5.88;2.13;;;7.00;99.90;;;;;;2235844;26;20014;-70
2024/04/20 02:33:17;;;;;;;5.43;2.65;;;6.90;99.90;;;;;;2235143;26;21215;-69
2024/04/20 02:34:18;;;;;;;6.43;2.25;;;6.90;99.90;;;;;;2236550;26;20533;-69
2024/04/20 02:35:19;;;;;;;6.82;2.95;;;6.90;99.90;;;;;;2235306;26;20358;-69
2024/04/20 02:36:23;;;;;;;6.18;2.60;;;6.90;99.90;;;;;;2236676;26;20072;-69
2024/04/20 02:37:24;;;;;;;5.18;2.42;;;6.90;99.90;;;;;;2236462;26;20011;-69
2024/04/20 02:38:24;;;;;;;5.30;3.05;;;6.90;99.90;;;;;;2231138;26;19999;-69
2024/04/20 02:39:25;;;;;;;5.13;2.65;;;6.90;99.90;;;;;;2239240;26;20003;-70
2024/04/20 02:40:26;;;;;;;8.43;2.67;;;6.90;99.90;;;;;;2230534;26;20362;-70
2024/04/20 02:41:26;;;;;;;10.52;3.10;;;6.90;99.90;;;;;;2233224;26;20048;-70
2024/04/20 02:42:27;;;;;;;5.00;2.33;;;6.90;99.90;;;;;;2239121;26;20351;-69
2024/04/20 02:43:28;;;;;;;6.35;2.30;;;6.90;99.90;;;;;;2236955;26;20076;-70
2024/04/20 02:44:29;;;;;;;8.35;2.75;;;6.90;99.90;;;;;;2239645;26;19999;-70
2024/04/20 02:45:29;;;;;;;8.68;2.75;;;6.90;99.90;;;;;;2234386;26;20000;-69
2024/04/20 02:46:33;;;;;;;8.27;3.00;;;6.90;99.90;;;;;;2237936;26;20109;-70
2024/04/20 02:47:33;;;;;;;7.00;2.78;;;6.90;99.90;;;;;;2238055;26;20015;-69
2024/04/20 02:48:34;;;;;;;11.32;3.13;;;6.90;99.90;;;;;;2234663;26;20015;-69
2024/04/20 02:49:34;;;;;;;8.27;3.08;;;6.90;99.90;;;;;;2236161;26;20047;-69
2024/04/20 02:50:35;;;;;;;6.78;2.20;;;6.90;99.90;;;;;;2237874;26;20004;-69
2024/04/20 02:51:35;;;;;;;8.50;2.58;;;6.90;99.90;;;;;;2236088;26;20004;-69
2024/04/20 02:52:36;;;;;;;9.45;2.60;;;6.90;99.90;;;;;;2238445;26;20011;-69
2024/04/20 02:53:36;;;;;;;8.73;2.60;;;6.90;99.90;;;;;;2236736;26;20076;-69
2024/04/20 02:54:37;;;;;;;4.93;2.47;;;6.90;99.90;;;;;;2238727;26;20003;-70
2024/04/20 02:55:37;;;;;;;10.70;2.83;;;6.90;99.90;;;;;;2236169;26;20015;-70
2024/04/20 02:56:38;;;;;;;4.65;2.78;;;6.90;99.90;;;;;;2234558;26;20084;-69
2024/04/20 02:57:39;;;;;;;7.10;2.70;;;6.90;99.90;;;;;;2235978;26;20028;-70
2024/04/20 02:58:39;;;;;;;5.70;2.80;;;6.90;99.90;;;;;;2238950;26;20011;-69
2024/04/20 02:59:40;;;;;;;8.45;3.13;;;6.90;99.90;;;;;;2236700;26;19996;-70
2024/04/20 03:00:40;;;;;;;9.93;2.90;;;6.90;99.90;;;;;;2236870;26;20010;-70
2024/04/20 03:01:41;;;;;;;5.45;2.78;;;6.90;99.90;;;;;;2232366;26;20000;-70
2024/04/20 03:02:42;;;;;;;6.35;2.45;;;6.90;99.90;;;;;;2238696;26;20471;-69
2024/04/20 03:03:42;;;;;;;5.05;2.20;;;6.90;99.90;;;;;;2235734;26;20076;-70
2024/04/20 03:04:43;;;;;;;9.52;3.05;;;6.90;99.90;;;;;;2236125;26;20073;-69
2024/04/20 03:05:43;;;;;;;7.15;2.55;;;6.90;99.90;;;;;;2238555;26;20064;-69
2024/04/20 03:06:44;;;;;;;10.00;2.22;;;6.90;99.90;;;;;;2237540;26;20003;-69
2024/04/20 03:07:45;;;;;;;4.07;2.05;;;6.90;99.90;;;;;;2237687;26;20018;-69
2024/04/20 03:08:45;;;;;;;7.82;2.78;;;6.90;99.90;;;;;;2238259;26;19999;-70
2024/04/20 03:09:46;;;;;;;6.13;2.80;;;6.90;99.90;;;;;;2239444;26;20015;-69
2024/04/20 03:10:47;;;;;;;7.68;2.60;;;6.80;99.90;;;;;;2244101;26;20011;-69
2024/04/20 03:11:48;;;;;;;3.67;2.53;;;6.90;99.90;;;;;;2236649;26;20014;-69
2024/04/20 03:12:51;;;;;;;6.13;2.58;;;6.90;99.90;;;;;;2236890;26;20007;-69
2024/04/20 03:13:53;;;;;;;5.38;2.40;;;6.90;99.90;;;;;;2237397;26;20485;-69
2024/04/20 03:14:54;;;;;;;5.68;2.40;;;6.90;99.90;;;;;;2237947;26;19996;-69
2024/04/20 03:16:00;;;;;;;5.72;2.75;;;6.90;99.90;;;;;;2237771;26;20003;-70
2024/04/20 03:17:01;;;;;;;5.15;2.28;;;6.90;99.90;;;;;;2237550;26;20003;-70
2024/04/20 03:18:03;;;;;;;3.75;2.17;;;6.90;99.90;;;;;;2238083;26;19999;-69
2024/04/20 03:19:03;;;;;;;6.32;2.28;;;6.90;99.90;;;;;;2237577;26;20085;-69
2024/04/20 03:20:04;;;;;;;5.30;2.33;;;6.90;99.90;;;;;;2238296;26;20509;-69
2024/04/20 03:21:05;;;;;;;4.13;2.65;;;6.90;99.90;;;;;;2237365;26;20011;-69
2024/04/20 03:22:05;;;;;;;5.28;2.72;;;6.90;99.90;;;;;;2236662;26;19999;-69
2024/04/20 03:23:06;;;;;;;6.38;3.90;;;6.90;99.90;;;;;;2237390;26;20011;-70
2024/04/20 03:24:07;;;;;;;4.43;2.97;;;6.90;99.90;;;;;;2235338;26;20015;-69
2024/04/20 03:25:12;;;;;;;4.85;2.90;;;6.80;99.90;;;;;;2239312;26;20080;-69
2024/04/20 03:26:12;;;;;;;6.22;2.45;;;6.90;99.90;;;;;;2236867;26;20004;-70
2024/04/20 03:27:13;;;;;;;8.15;2.65;;;6.80;99.90;;;;;;2237248;26;19999;-68
2024/04/20 03:28:13;;;;;;;2.65;2.40;;;6.90;99.90;;;;;;2238237;26;20000;-69
2024/04/20 03:29:14;;;;;;;6.40;2.67;;;6.90;99.90;;;;;;2237379;26;19996;-68
2024/04/20 03:30:15;;;;;;;7.60;2.65;;;6.80;99.90;;;;;;2222517;26;20004;-69
2024/04/20 03:31:15;;;;;;;6.68;3.13;;;6.80;99.90;;;;;;2224977;26;20015;-70
2024/04/20 03:32:16;;;;;;;3.83;2.45;;;6.80;99.90;;;;;;2237762;26;20094;-68
2024/04/20 03:33:18;;;;;;;6.43;2.78;;;6.80;99.90;;;;;;2240240;26;20014;-69
2024/04/20 03:34:18;;;;;;;6.55;3.13;;;6.80;99.90;;;;;;2237554;26;20050;-69
2024/04/20 03:35:19;;;;;;;10.23;3.05;;;6.80;99.90;;;;;;2237652;26;20046;-70
2024/04/20 03:36:19;;;;;;;4.38;2.97;;;6.80;99.90;;;;;;2238583;26;20072;-68
2024/04/20 03:37:20;;;;;;;4.78;2.75;;;6.70;99.90;;;;;;2235477;26;20075;-70
2024/04/20 03:38:21;;;;;;;3.70;2.60;;;6.70;99.90;;;;;;2238004;26;20536;-69
2024/04/20 03:39:22;;;;;;;4.32;2.63;;;6.70;99.90;;;;;;2237846;26;20563;-70
2024/04/20 03:40:23;;;;;;;4.97;2.50;;;6.70;99.90;;;;;;2236327;26;20021;-69
2024/04/20 03:41:24;;;;;;;6.38;2.58;;;6.70;99.90;;;;;;2238717;26;20010;-69
2024/04/20 03:42:26;;;;;;;4.22;2.47;;;6.70;99.90;;;;;;2234620;26;20000;-69
2024/04/20 03:43:27;;;;;;;5.85;2.78;;;6.70;99.90;;;;;;2235604;26;20073;-69
2024/04/20 03:44:27;;;;;;;5.43;2.38;;;6.70;99.90;;;;;;2238422;26;20011;-70
2024/04/20 03:45:28;;;;;;;5.20;2.63;;;6.70;99.90;;;;;;2236484;26;20011;-69
2024/04/20 03:46:31;;;;;;;7.07;2.67;;;6.70;99.90;;;;;;2237305;26;20044;-69
2024/04/20 03:47:32;;;;;;;6.68;2.53;;;6.70;99.90;;;;;;2236421;26;20007;-70
2024/04/20 03:48:33;;;;;;;5.05;2.50;;;6.60;99.90;;;;;;2235863;26;21244;-69
2024/04/20 03:49:33;;;;;;;6.15;3.38;;;6.60;99.90;;;;;;2238369;26;20000;-70
2024/04/20 03:50:34;;;;;;;6.72;3.03;;;6.60;99.90;;;;;;2236723;26;20010;-69
2024/04/20 03:51:34;;;;;;;4.80;2.85;;;6.70;99.90;;;;;;2237187;26;20008;-69
2024/04/20 03:52:35;;;;;;;5.57;2.55;;;6.60;99.90;;;;;;2238385;26;20069;-69
2024/04/20 03:53:35;;;;;;;5.72;2.80;;;6.60;99.90;;;;;;2236453;26;20460;-70
2024/04/20 03:54:36;;;;;;;6.90;3.28;;;6.60;99.90;;;;;;2238312;26;20352;-68
2024/04/20 03:55:36;;;;;;;5.45;3.13;;;6.60;99.90;;;;;;2236798;26;20418;-70
2024/04/20 03:56:37;;;;;;;4.30;2.90;;;6.60;99.90;;;;;;2236172;26;20018;-69
2024/04/20 03:57:37;;;;;;;3.72;2.58;;;6.60;99.90;;;;;;2237801;26;20011;-69
2024/04/20 03:58:38;;;;;;;3.97;2.85;;;6.60;99.90;;;;;;2236644;26;20000;-69
2024/04/20 03:59:39;;;;;;;5.40;2.45;;;6.60;99.90;;;;;;2238045;26;20035;-70
2024/04/20 04:00:39;;;;;;;5.00;2.80;;;6.70;99.90;;;;;;2237291;26;20004;-70
2024/04/20 04:01:40;;;;;;;4.32;2.53;;;6.70;99.90;;;;;;2235389;26;20044;-69
2024/04/20 04:02:40;;;;;;;6.15;2.95;;;6.70;99.90;;;;;;2238015;26;20019;-69
2024/04/20 04:03:41;;;;;;;6.90;3.10;;;6.70;99.90;;;;;;2238035;26;19999;-69
2024/04/20 04:04:41;;;;;;;10.20;2.97;;;6.70;99.90;;;;;;2236575;26;20360;-69
2024/04/20 04:05:42;;;;;;;6.63;3.10;;;6.70;99.90;;;;;;2238692;26;20016;-69
2024/04/20 04:06:43;;;;;;;3.85;2.90;;;6.70;99.90;;;;;;2236955;26;20084;-69
2024/04/20 04:07:43;;;;;;;4.00;2.10;;;6.70;99.90;;;;;;2236292;26;20011;-69
2024/04/20 04:08:44;;;;;;;6.18;3.03;;;6.70;99.90;;;;;;2238487;26;20332;-69
2024/04/20 04:09:44;;;;;;;7.10;3.05;;;6.70;99.90;;;;;;2250179;26;19995;-70
2024/04/20 04:10:45;;;;;;;3.75;2.83;;;6.70;99.90;;;;;;2252378;26;19995;-69
2024/04/20 04:11:46;;;;;;;7.38;3.30;;;6.70;99.90;;;;;;2236734;26;20031;-69
2024/04/20 04:12:46;;;;;;;6.32;2.80;;;6.80;99.90;;;;;;2234131;26;20018;-69
2024/04/20 04:13:47;;;;;;;7.70;3.85;;;6.80;99.90;;;;;;2238046;26;20011;-70
2024/04/20 04:14:47;;;;;;;7.65;3.30;;;6.80;99.90;;;;;;2236962;26;20004;-69
2024/04/20 04:15:48;;;;;;;8.40;2.90;;;6.80;99.90;;;;;;2236597;26;20065;-69
2024/04/20 04:16:48;;;;;;;6.72;2.88;;;6.80;99.90;;;;;;2234746;26;20007;-69
2024/04/20 04:17:49;;;;;;;8.52;3.15;;;6.80;99.90;;;;;;2235957;26;20003;-69
2024/04/20 04:18:50;;;;;;;10.45;3.28;;;6.80;99.90;;;;;;2238445;26;20000;-69
2024/04/20 04:19:50;;;;;;;4.72;3.53;;;6.80;99.90;;;;;;2236743;26;20011;-69
2024/04/20 04:20:51;;;;;;;7.20;3.20;;;6.90;99.90;;;;;;2236878;26;20017;-68
2024/04/20 04:21:51;;;;;;;5.90;2.60;;;6.80;99.90;;;;;;2252720;26;19998;-69
2024/04/20 04:22:52;;;;;;;7.35;2.90;;;6.90;99.90;;;;;;2249573;26;20010;-69
2024/04/20 04:23:52;;;;;;;5.20;3.15;;;6.90;99.90;;;;;;2237807;26;20004;-69
2024/04/20 04:24:53;;;;;;;6.53;3.15;;;6.90;99.90;;;;;;2236114;26;20000;-70
2024/04/20 04:25:54;;;;;;;4.80;2.80;;;6.90;99.90;;;;;;2236407;26;19996;-69
2024/04/20 04:27:11;;;;;;;7.38;2.90;;;6.90;99.90;;;;;;2237697;26;20352;-69
2024/04/20 04:28:12;;;;;;;4.40;2.58;;;6.90;99.90;;;;;;2238237;26;20011;-69
2024/04/20 04:29:12;;;;;;;8.90;3.20;;;6.90;99.90;;;;;;2236443;26;20009;-69
2024/04/20 04:30:13;;;;;;;7.03;2.65;;;6.90;99.90;;;;;;2238445;26;20320;-70
2024/04/20 04:31:14;;;;;;;6.43;3.13;;;6.90;99.90;;;;;;2236362;26;20035;-69
2024/04/20 04:32:14;;;;;;;7.35;2.92;;;7.00;99.90;;;;;;2235939;26;20007;-69
2024/04/20 04:33:15;;;;;;;7.20;3.25;;;7.00;99.90;;;;;;2238113;26;20004;-70
2024/04/20 04:34:15;;;;;;;5.45;2.95;;;7.00;99.90;;;;;;2237464;26;20768;-69
2024/04/20 04:35:16;;;;;;;5.20;2.50;;;7.00;99.90;;;;;;2238836;26;20000;-70
2024/04/20 04:36:17;;;;;;;5.88;2.63;;;7.00;99.90;;;;;;2237172;26;20040;-70
2024/04/20 04:37:17;;;;;;;4.40;2.80;;;7.00;99.90;;;;;;2236817;26;20077;-69
2024/04/20 04:38:18;;;;;;;8.23;2.75;;;7.00;99.90;;;;;;2237977;26;20012;-69
2024/04/20 04:39:18;;;;;;;8.30;3.22;;;7.10;99.90;;;;;;2237303;26;20000;-69
2024/04/20 04:40:19;;;;;;;7.03;2.75;;;7.10;99.90;;;;;;2237194;26;20010;-69
2024/04/20 04:41:20;;;;;;;6.38;3.67;;;7.10;99.90;;;;;;2237141;26;20012;-69
2024/04/20 04:42:20;;;;;;;8.82;2.67;;;7.10;99.90;;;;;;2234760;26;20083;-69
2024/04/20 04:43:21;;;;;;;6.28;2.83;;;7.10;99.90;;;;;;2238704;26;20091;-69
2024/04/20 04:44:22;;;;;;;7.57;3.05;;;7.20;99.90;;;;;;2237461;26;20006;-69
2024/04/20 04:45:22;;;;;;;6.65;3.20;;;7.20;99.90;;;;;;2235643;26;20459;-69
2024/04/20 04:46:23;;;;;;;7.82;3.47;;;7.20;99.90;;;;;;2238067;26;20006;-70
2024/04/20 04:47:23;;;;;;;7.03;2.97;;;7.20;99.90;;;;;;2237860;26;20000;-69
2024/04/20 04:48:26;;;;;;;7.68;2.63;;;7.20;99.90;;;;;;2236588;26;19999;-70
2024/04/20 04:49:27;;;;;;;7.43;3.03;;;7.20;99.90;;;;;;2237730;26;20004;-69
2024/04/20 04:50:28;;;;;;;5.35;2.92;;;7.30;99.90;;;;;;2236138;26;20000;-70
2024/04/20 04:51:28;;;;;;;7.32;3.08;;;7.30;99.90;;;;;;2238132;26;19999;-69
2024/04/20 04:52:29;;;;;;;6.57;2.80;;;7.30;99.90;;;;;;2235048;26;20018;-69
2024/04/20 04:53:30;;;;;;;6.32;3.10;;;7.30;99.90;;;;;;2234240;26;20025;-71
2024/04/20 04:54:30;;;;;;;6.55;2.70;;;7.30;99.90;;;;;;2234827;26;20061;-70
2024/04/20 04:55:31;;;;;;;4.80;3.00;;;7.30;99.90;;;;;;2250346;26;20003;-69
2024/04/20 04:56:32;;;;;;;5.32;2.55;;;7.40;99.90;;;;;;2251974;26;20474;-69
2024/04/20 04:57:32;;;;;;;6.03;2.85;;;7.40;99.90;;;;;;2234607;26;20019;-69
2024/04/20 04:58:33;;;;;;;6.63;3.33;;;7.40;99.90;;;;;;2236415;26;20017;-68
2024/04/20 04:59:34;;;;;;;6.05;2.70;;;7.40;99.90;;;;;;2237735;26;20000;-70
2024/04/20 05:00:34;;;;;;;5.68;2.17;;;7.40;99.90;;;;;;2235251;26;20011;-69
2024/04/20 05:01:37;;;;;;;4.07;2.60;;;7.40;99.90;;;;;;2237789;26;19995;-69
2024/04/20 05:02:38;;;;;;;8.75;2.88;;;7.40;99.90;;;;;;2236813;26;20443;-69
2024/04/20 05:03:38;;;;;;;5.40;2.47;;;7.50;99.90;;;;;;2234823;26;20376;-69
2024/04/20 05:04:39;;;;;;;2.70;2.20;;;7.50;99.90;;;;;;2238278;26;20004;-70
2024/04/20 05:05:47;;;;;;;4.80;2.50;;;7.50;99.90;;;;;;2236373;26;20003;-69
2024/04/20 05:06:48;;;;;;;5.13;2.42;;;7.50;99.90;;;;;;2236202;26;20414;-69
2024/04/20 05:07:49;;;;;;;5.40;2.33;;;7.50;99.90;;;;;;2238029;26;20019;-70
2024/04/20 05:08:50;;;;;;;8.40;2.50;;;7.50;99.90;;;;;;2234894;26;20003;-70
2024/04/20 05:09:50;;;;;;;6.47;2.40;;;7.50;99.90;;;;;;2235903;26;20146;-69
2024/04/20 05:10:51;;;;;;;5.80;2.30;;;7.50;99.90;;;;;;2237123;26;20000;-70
2024/04/20 05:11:51;;;;;;;7.70;2.67;;;7.50;99.90;;;;;;2234323;26;20015;-70
2024/04/20 05:12:52;;;;;;;4.20;2.28;;;7.60;99.90;;;;;;2237597;26;20003;-69
2024/04/20 05:13:52;;;;;;;6.03;2.75;;;7.60;99.90;;;;;;2235104;26;20017;-70
2024/04/20 05:14:54;;;;;;;5.60;2.53;;;7.60;99.90;;;;;;2236438;26;20011;-69
2024/04/20 05:15:55;;;;;;;3.22;2.60;;;7.60;99.90;;;;;;2238392;26;20443;-69
2024/04/20 05:16:55;;;;;;;4.38;2.58;;;7.60;99.90;;;;;;2237086;26;20470;-70
2024/04/20 05:17:56;;;;;;;6.50;2.65;;;7.60;99.90;;;;;;2237502;26;20007;-69
2024/04/20 05:18:56;;;;;;;5.55;2.40;;;7.60;99.90;;;;;;2235556;26;19999;-69
2024/04/20 05:19:57;;;;;;;4.57;2.03;;;7.60;99.90;;;;;;2235165;26;20007;-69
2024/04/20 05:20:57;;;;;;;4.65;2.53;;;7.60;99.90;;;;;;2235240;26;20102;-69
2024/04/20 05:21:58;;;;;;;4.45;2.20;;;7.70;99.90;;;;;;2220058;26;20039;-69